sensor_id;sensor_type;location;lat;lon;timestamp;pressure;altitude;pressure_sealevel;temperature
15845;BMP180;50807;52.436;13.346;2024-03-02T00:00:13;100112.00;;;13.70
15845;BMP180;50807;52.436;13.346;2024-03-02T00:00:49;100111.00;;;13.60
15845;BMP180;50807;52.436;13.346;2024-03-02T00:01:20;100115.00;;;13.70
15845;BMP180;50807;52.436;13.346;2024-03-02T00:01:51;100109.00;;;13.70
15845;BMP180;50807;52.436;13.346;2024-03-02T00:02:22;100108.00;;;13.70
15845;BMP180;50807;52.436;13.346;2024-03-02T00:02:53;100114.00;;;13.80
15845;BMP180;50807;52.436;13.346;2024-03-02T00:03:24;100106.00;;;13.70
15845;BMP180;50807;52.436;13.346;2024-03-02T00:03:55;100105.00;;;13.70
15845;BMP180;50807;52.436;13.346;2024-03-02T00:04:27;100114.00;;;13.70
15845;BMP180;50807;52.436;13.346;2024-03-02T00:04:57;100104.00;;;13.70
15845;BMP180;50807;52.436;13.346;2024-03-02T00:05:28;100107.00;;;13.80
15845;BMP180;50807;52.436;13.346;2024-03-02T00:05:59;100107.00;;;13.70
15845;BMP180;50807;52.436;13.346;2024-03-02T00:06:30;100112.00;;;13.70
15845;BMP180;50807;52.436;13.346;2024-03-02T00:07:02;100106.00;;;13.70
15845;BMP180;50807;52.436;13.346;2024-03-02T00:07:33;100106.00;;;13.70
15845;BMP180;50807;52.436;13.346;2024-03-02T00:08:06;100111.00;;;13.70
15845;BMP180;50807;52.436;13.346;2024-03-02T00:08:37;100111.00;;;13.70
15845;BMP180;50807;52.436;13.346;2024-03-02T00:09:11;100113.00;;;13.70
15845;BMP180;50807;52.436;13.346;2024-03-02T00:09:42;100093.00;;;13.70
15845;BMP180;50807;52.436;13.346;2024-03-02T00:10:19;100111.00;;;13.70
15845;BMP180;50807;52.436;13.346;2024-03-02T00:10:51;100110.00;;;13.70
15845;BMP180;50807;52.436;13.346;2024-03-02T00:11:23;100115.00;;;13.70
15845;BMP180;50807;52.436;13.346;2024-03-02T00:11:54;100112.00;;;13.70
15845;BMP180;50807;52.436;13.346;2024-03-02T00:12:26;100110.00;;;13.70
15845;BMP180;50807;52.436;13.346;2024-03-02T00:12:57;100109.00;;;13.70
15845;BMP180;50807;52.436;13.346;2024-03-02T00:13:29;100109.00;;;13.70
15845;BMP180;50807;52.436;13.346;2024-03-02T00:14:01;100109.00;;;13.70
15845;BMP180;50807;52.436;13.346;2024-03-02T00:14:32;100102.00;;;13.70
15845;BMP180;50807;52.436;13.346;2024-03-02T00:15:16;100109.00;;;13.70
15845;BMP180;50807;52.436;13.346;2024-03-02T00:15:54;100110.00;;;13.60
15845;BMP180;50807;52.436;13.346;2024-03-02T00:16:30;100111.00;;;13.60
15845;BMP180;50807;52.436;13.346;2024-03-02T00:17:02;100108.00;;;13.70
15845;BMP180;50807;52.436;13.346;2024-03-02T00:17:33;100098.00;;;13.70
15845;BMP180;50807;52.436;13.346;2024-03-02T00:18:04;100087.00;;;13.80
15845;BMP180;50807;52.436;13.346;2024-03-02T00:18:37;100092.00;;;13.70
15845;BMP180;50807;52.436;13.346;2024-03-02T00:19:09;100098.00;;;13.70
15845;BMP180;50807;52.436;13.346;2024-03-02T00:19:40;100101.00;;;13.70
15845;BMP180;50807;52.436;13.346;2024-03-02T00:20:18;100101.00;;;13.60
15845;BMP180;50807;52.436;13.346;2024-03-02T00:20:53;100095.00;;;13.60
15845;BMP180;50807;52.436;13.346;2024-03-02T00:21:27;100097.00;;;13.70
15845;BMP180;50807;52.436;13.346;2024-03-02T00:22:01;100093.00;;;13.70
15845;BMP180;50807;52.436;13.346;2024-03-02T00:22:35;100093.00;;;13.70
15845;BMP180;50807;52.436;13.346;2024-03-02T00:23:09;100101.00;;;13.70
15845;BMP180;50807;52.436;13.346;2024-03-02T00:23:41;100099.00;;;13.70
15845;BMP180;50807;52.436;13.346;2024-03-02T00:24:21;100100.00;;;13.60
15845;BMP180;50807;52.436;13.346;2024-03-02T00:24:55;100093.00;;;13.70
15845;BMP180;50807;52.436;13.346;2024-03-02T00:25:26;100101.00;;;13.70
15845;BMP180;50807;52.436;13.346;2024-03-02T00:25:57;100083.00;;;13.70
15845;BMP180;50807;52.436;13.346;2024-03-02T00:26:30;100087.00;;;13.70
15845;BMP180;50807;52.436;13.346;2024-03-02T00:27:03;100094.00;;;13.70
15845;BMP180;50807;52.436;13.346;2024-03-02T00:27:36;100085.00;;;13.80
15845;BMP180;50807;52.436;13.346;2024-03-02T00:28:16;100090.00;;;13.70
15845;BMP180;50807;52.436;13.346;2024-03-02T00:28:48;100087.00;;;13.70
15845;BMP180;50807;52.436;13.346;2024-03-02T00:29:20;100091.00;;;13.80
15845;BMP180;50807;52.436;13.346;2024-03-02T00:29:51;100095.00;;;13.80
15845;BMP180;50807;52.436;13.346;2024-03-02T00:30:54;100093.00;;;13.60
15845;BMP180;50807;52.436;13.346;2024-03-02T00:31:25;100086.00;;;13.70
15845;BMP180;50807;52.436;13.346;2024-03-02T00:31:57;100087.00;;;13.70
15845;BMP180;50807;52.436;13.346;2024-03-02T00:32:29;100090.00;;;13.80
15845;BMP180;50807;52.436;13.346;2024-03-02T00:33:00;100091.00;;;13.80
15845;BMP180;50807;52.436;13.346;2024-03-02T00:33:33;100086.00;;;13.70
15845;BMP180;50807;52.436;13.346;2024-03-02T00:34:06;100083.00;;;13.80
15845;BMP180;50807;52.436;13.346;2024-03-02T00:34:37;100089.00;;;13.80
15845;BMP180;50807;52.436;13.346;2024-03-02T00:35:07;100087.00;;;13.80
15845;BMP180;50807;52.436;13.346;2024-03-02T00:35:38;100087.00;;;13.80
15845;BMP180;50807;52.436;13.346;2024-03-02T00:36:10;100066.00;;;13.80
15845;BMP180;50807;52.436;13.346;2024-03-02T00:36:43;100094.00;;;13.80
15845;BMP180;50807;52.436;13.346;2024-03-02T00:37:14;100085.00;;;13.80
15845;BMP180;50807;52.436;13.346;2024-03-02T00:37:45;100091.00;;;13.80
15845;BMP180;50807;52.436;13.346;2024-03-02T00:38:16;100092.00;;;13.80
15845;BMP180;50807;52.436;13.346;2024-03-02T00:38:48;100090.00;;;13.80
15845;BMP180;50807;52.436;13.346;2024-03-02T00:39:20;100090.00;;;13.80
15845;BMP180;50807;52.436;13.346;2024-03-02T00:39:51;100094.00;;;13.80
15845;BMP180;50807;52.436;13.346;2024-03-02T00:40:26;100098.00;;;13.70
15845;BMP180;50807;52.436;13.346;2024-03-02T00:41:04;100094.00;;;13.70
15845;BMP180;50807;52.436;13.346;2024-03-02T00:41:41;100096.00;;;13.70
15845;BMP180;50807;52.436;13.346;2024-03-02T00:42:13;100086.00;;;13.80
15845;BMP180;50807;52.436;13.346;2024-03-02T00:42:45;100093.00;;;13.80
15845;BMP180;50807;52.436;13.346;2024-03-02T00:43:43;100095.00;;;13.60
15845;BMP180;50807;52.436;13.346;2024-03-02T00:44:20;100095.00;;;13.70
15845;BMP180;50807;52.436;13.346;2024-03-02T00:44:54;100098.00;;;13.70
15845;BMP180;50807;52.436;13.346;2024-03-02T00:45:25;100094.00;;;13.70
15845;BMP180;50807;52.436;13.346;2024-03-02T00:45:56;100090.00;;;13.80
15845;BMP180;50807;52.436;13.346;2024-03-02T00:46:33;100083.00;;;13.70
15845;BMP180;50807;52.436;13.346;2024-03-02T00:47:04;100094.00;;;13.80
15845;BMP180;50807;52.436;13.346;2024-03-02T00:47:38;100091.00;;;13.80
15845;BMP180;50807;52.436;13.346;2024-03-02T00:48:08;100095.00;;;13.80
15845;BMP180;50807;52.436;13.346;2024-03-02T00:48:53;100091.00;;;13.70
15845;BMP180;50807;52.436;13.346;2024-03-02T00:49:26;100087.00;;;13.80
15845;BMP180;50807;52.436;13.346;2024-03-02T00:49:57;100096.00;;;13.80
15845;BMP180;50807;52.436;13.346;2024-03-02T00:50:27;100092.00;;;13.80
15845;BMP180;50807;52.436;13.346;2024-03-02T00:50:58;100092.00;;;13.80
15845;BMP180;50807;52.436;13.346;2024-03-02T00:51:32;100092.00;;;13.80
15845;BMP180;50807;52.436;13.346;2024-03-02T00:52:06;100081.00;;;13.80
15845;BMP180;50807;52.436;13.346;2024-03-02T00:52:37;100096.00;;;13.80
15845;BMP180;50807;52.436;13.346;2024-03-02T00:53:10;100088.00;;;13.80
15845;BMP180;50807;52.436;13.346;2024-03-02T00:53:42;100092.00;;;13.80
15845;BMP180;50807;52.436;13.346;2024-03-02T00:54:14;100086.00;;;13.90
15845;BMP180;50807;52.436;13.346;2024-03-02T00:54:46;100091.00;;;13.90
15845;BMP180;50807;52.436;13.346;2024-03-02T00:55:17;100094.00;;;13.90
15845;BMP180;50807;52.436;13.346;2024-03-02T00:55:48;100091.00;;;13.90
15845;BMP180;50807;52.436;13.346;2024-03-02T00:56:19;100091.00;;;13.90
15845;BMP180;50807;52.436;13.346;2024-03-02T00:56:51;100090.00;;;13.90
15845;BMP180;50807;52.436;13.346;2024-03-02T00:57:23;100085.00;;;13.90
15845;BMP180;50807;52.436;13.346;2024-03-02T00:57:58;100092.00;;;13.90
15845;BMP180;50807;52.436;13.346;2024-03-02T00:58:29;100094.00;;;13.90
15845;BMP180;50807;52.436;13.346;2024-03-02T00:58:59;100087.00;;;13.90
15845;BMP180;50807;52.436;13.346;2024-03-02T00:59:31;100098.00;;;13.90
15845;BMP180;50807;52.436;13.346;2024-03-02T01:00:03;100089.00;;;13.90
15845;BMP180;50807;52.436;13.346;2024-03-02T01:00:35;100097.00;;;13.90
15845;BMP180;50807;52.436;13.346;2024-03-02T01:01:06;100095.00;;;13.90
15845;BMP180;50807;52.436;13.346;2024-03-02T01:01:37;100097.00;;;13.90
15845;BMP180;50807;52.436;13.346;2024-03-02T01:02:09;100092.00;;;13.90
15845;BMP180;50807;52.436;13.346;2024-03-02T01:02:40;100095.00;;;13.90
15845;BMP180;50807;52.436;13.346;2024-03-02T01:03:10;100091.00;;;13.90
15845;BMP180;50807;52.436;13.346;2024-03-02T01:03:41;100094.00;;;13.90
15845;BMP180;50807;52.436;13.346;2024-03-02T01:04:13;100076.00;;;13.90
15845;BMP180;50807;52.436;13.346;2024-03-02T01:04:44;100094.00;;;13.90
15845;BMP180;50807;52.436;13.346;2024-03-02T01:05:15;100084.00;;;13.90
15845;BMP180;50807;52.436;13.346;2024-03-02T01:05:46;100085.00;;;13.90
15845;BMP180;50807;52.436;13.346;2024-03-02T01:06:17;100083.00;;;13.90
15845;BMP180;50807;52.436;13.346;2024-03-02T01:06:49;100080.00;;;13.90
15845;BMP180;50807;52.436;13.346;2024-03-02T01:07:19;100086.00;;;13.90
15845;BMP180;50807;52.436;13.346;2024-03-02T01:07:50;100086.00;;;13.90
15845;BMP180;50807;52.436;13.346;2024-03-02T01:08:21;100075.00;;;14.00
15845;BMP180;50807;52.436;13.346;2024-03-02T01:08:52;100080.00;;;13.90
15845;BMP180;50807;52.436;13.346;2024-03-02T01:09:23;100089.00;;;14.00
15845;BMP180;50807;52.436;13.346;2024-03-02T01:09:54;100081.00;;;14.00
15845;BMP180;50807;52.436;13.346;2024-03-02T01:10:25;100088.00;;;14.00
15845;BMP180;50807;52.436;13.346;2024-03-02T01:10:56;100085.00;;;14.00
15845;BMP180;50807;52.436;13.346;2024-03-02T01:11:28;100079.00;;;14.00
15845;BMP180;50807;52.436;13.346;2024-03-02T01:11:58;100084.00;;;14.00
15845;BMP180;50807;52.436;13.346;2024-03-02T01:12:29;100081.00;;;14.00
15845;BMP180;50807;52.436;13.346;2024-03-02T01:13:01;100079.00;;;13.90
15845;BMP180;50807;52.436;13.346;2024-03-02T01:13:33;100081.00;;;14.00
15845;BMP180;50807;52.436;13.346;2024-03-02T01:14:04;100085.00;;;14.00
15845;BMP180;50807;52.436;13.346;2024-03-02T01:14:35;100070.00;;;14.00
15845;BMP180;50807;52.436;13.346;2024-03-02T01:15:08;100090.00;;;14.00
15845;BMP180;50807;52.436;13.346;2024-03-02T01:15:38;100082.00;;;14.00
15845;BMP180;50807;52.436;13.346;2024-03-02T01:16:09;100080.00;;;14.00
15845;BMP180;50807;52.436;13.346;2024-03-02T01:16:40;100084.00;;;14.00
15845;BMP180;50807;52.436;13.346;2024-03-02T01:17:11;100087.00;;;14.00
15845;BMP180;50807;52.436;13.346;2024-03-02T01:17:42;100087.00;;;14.00
15845;BMP180;50807;52.436;13.346;2024-03-02T01:18:13;100086.00;;;14.00
15845;BMP180;50807;52.436;13.346;2024-03-02T01:18:44;100086.00;;;14.00
15845;BMP180;50807;52.436;13.346;2024-03-02T01:19:16;100084.00;;;14.00
15845;BMP180;50807;52.436;13.346;2024-03-02T01:19:47;100082.00;;;14.00
15845;BMP180;50807;52.436;13.346;2024-03-02T01:20:18;100062.00;;;14.00
15845;BMP180;50807;52.436;13.346;2024-03-02T01:20:49;100069.00;;;14.00
15845;BMP180;50807;52.436;13.346;2024-03-02T01:21:22;100081.00;;;14.00
15845;BMP180;50807;52.436;13.346;2024-03-02T01:21:52;100079.00;;;14.00
15845;BMP180;50807;52.436;13.346;2024-03-02T01:22:23;100081.00;;;14.00
15845;BMP180;50807;52.436;13.346;2024-03-02T01:22:56;100064.00;;;14.00
15845;BMP180;50807;52.436;13.346;2024-03-02T01:23:26;100067.00;;;14.00
15845;BMP180;50807;52.436;13.346;2024-03-02T01:23:57;100077.00;;;14.00
15845;BMP180;50807;52.436;13.346;2024-03-02T01:24:29;100069.00;;;14.00
15845;BMP180;50807;52.436;13.346;2024-03-02T01:24:59;100070.00;;;14.00
15845;BMP180;50807;52.436;13.346;2024-03-02T01:25:30;100074.00;;;14.00
15845;BMP180;50807;52.436;13.346;2024-03-02T01:26:01;100078.00;;;14.00
15845;BMP180;50807;52.436;13.346;2024-03-02T01:26:32;100080.00;;;14.00
15845;BMP180;50807;52.436;13.346;2024-03-02T01:27:03;100065.00;;;14.00
15845;BMP180;50807;52.436;13.346;2024-03-02T01:27:34;100079.00;;;14.10
15845;BMP180;50807;52.436;13.346;2024-03-02T01:28:07;100074.00;;;14.00
15845;BMP180;50807;52.436;13.346;2024-03-02T01:28:39;100076.00;;;14.00
15845;BMP180;50807;52.436;13.346;2024-03-02T01:29:10;100064.00;;;14.00
15845;BMP180;50807;52.436;13.346;2024-03-02T01:29:41;100070.00;;;14.00
15845;BMP180;50807;52.436;13.346;2024-03-02T01:30:13;100068.00;;;14.10
15845;BMP180;50807;52.436;13.346;2024-03-02T01:30:44;100056.00;;;14.00
15845;BMP180;50807;52.436;13.346;2024-03-02T01:31:14;100074.00;;;14.00
15845;BMP180;50807;52.436;13.346;2024-03-02T01:31:46;100076.00;;;14.00
15845;BMP180;50807;52.436;13.346;2024-03-02T01:32:17;100068.00;;;14.10
15845;BMP180;50807;52.436;13.346;2024-03-02T01:32:48;100076.00;;;14.00
15845;BMP180;50807;52.436;13.346;2024-03-02T01:33:19;100080.00;;;14.00
15845;BMP180;50807;52.436;13.346;2024-03-02T01:33:50;100075.00;;;14.10
15845;BMP180;50807;52.436;13.346;2024-03-02T01:34:22;100069.00;;;14.00
15845;BMP180;50807;52.436;13.346;2024-03-02T01:34:53;100066.00;;;14.00
15845;BMP180;50807;52.436;13.346;2024-03-02T01:35:23;100076.00;;;14.00
15845;BMP180;50807;52.436;13.346;2024-03-02T01:35:54;100073.00;;;14.00
15845;BMP180;50807;52.436;13.346;2024-03-02T01:36:26;100068.00;;;14.00
15845;BMP180;50807;52.436;13.346;2024-03-02T01:36:56;100063.00;;;14.00
15845;BMP180;50807;52.436;13.346;2024-03-02T01:37:27;100069.00;;;14.00
15845;BMP180;50807;52.436;13.346;2024-03-02T01:37:58;100063.00;;;14.00
15845;BMP180;50807;52.436;13.346;2024-03-02T01:38:30;100070.00;;;14.00
15845;BMP180;50807;52.436;13.346;2024-03-02T01:39:01;100064.00;;;14.00
15845;BMP180;50807;52.436;13.346;2024-03-02T01:39:32;100063.00;;;14.00
15845;BMP180;50807;52.436;13.346;2024-03-02T01:40:05;100060.00;;;14.00
15845;BMP180;50807;52.436;13.346;2024-03-02T01:40:39;100054.00;;;14.00
15845;BMP180;50807;52.436;13.346;2024-03-02T01:41:10;100059.00;;;14.00
15845;BMP180;50807;52.436;13.346;2024-03-02T01:41:42;100061.00;;;14.00
15845;BMP180;50807;52.436;13.346;2024-03-02T01:42:14;100063.00;;;14.00
15845;BMP180;50807;52.436;13.346;2024-03-02T01:42:44;100062.00;;;14.00
15845;BMP180;50807;52.436;13.346;2024-03-02T01:43:16;100059.00;;;14.00
15845;BMP180;50807;52.436;13.346;2024-03-02T01:43:47;100060.00;;;14.00
15845;BMP180;50807;52.436;13.346;2024-03-02T01:44:19;100064.00;;;14.00
15845;BMP180;50807;52.436;13.346;2024-03-02T01:44:50;100055.00;;;14.00
15845;BMP180;50807;52.436;13.346;2024-03-02T01:45:21;100058.00;;;14.00
15845;BMP180;50807;52.436;13.346;2024-03-02T01:45:52;100051.00;;;14.00
15845;BMP180;50807;52.436;13.346;2024-03-02T01:46:23;100053.00;;;14.00
15845;BMP180;50807;52.436;13.346;2024-03-02T01:46:55;100056.00;;;14.00
15845;BMP180;50807;52.436;13.346;2024-03-02T01:47:25;100056.00;;;14.00
15845;BMP180;50807;52.436;13.346;2024-03-02T01:47:56;100054.00;;;14.00
15845;BMP180;50807;52.436;13.346;2024-03-02T01:48:27;100049.00;;;14.00
15845;BMP180;50807;52.436;13.346;2024-03-02T01:48:59;100046.00;;;14.00
15845;BMP180;50807;52.436;13.346;2024-03-02T01:49:30;100051.00;;;14.00
15845;BMP180;50807;52.436;13.346;2024-03-02T01:50:01;100045.00;;;14.00
15845;BMP180;50807;52.436;13.346;2024-03-02T01:50:33;100053.00;;;14.00
15845;BMP180;50807;52.436;13.346;2024-03-02T01:51:05;100046.00;;;14.00
15845;BMP180;50807;52.436;13.346;2024-03-02T01:51:36;100046.00;;;14.00
15845;BMP180;50807;52.436;13.346;2024-03-02T01:52:07;100042.00;;;14.00
15845;BMP180;50807;52.436;13.346;2024-03-02T01:52:38;100036.00;;;14.00
15845;BMP180;50807;52.436;13.346;2024-03-02T01:53:09;100049.00;;;14.00
15845;BMP180;50807;52.436;13.346;2024-03-02T01:53:41;100044.00;;;14.00
15845;BMP180;50807;52.436;13.346;2024-03-02T01:54:12;100042.00;;;14.00
15845;BMP180;50807;52.436;13.346;2024-03-02T01:54:42;100025.00;;;14.00
15845;BMP180;50807;52.436;13.346;2024-03-02T01:55:13;100048.00;;;14.00
15845;BMP180;50807;52.436;13.346;2024-03-02T01:55:45;100041.00;;;14.00
15845;BMP180;50807;52.436;13.346;2024-03-02T01:56:16;100049.00;;;14.00
15845;BMP180;50807;52.436;13.346;2024-03-02T01:56:47;100046.00;;;14.00
15845;BMP180;50807;52.436;13.346;2024-03-02T01:57:18;100041.00;;;14.00
15845;BMP180;50807;52.436;13.346;2024-03-02T01:57:50;100048.00;;;14.00
15845;BMP180;50807;52.436;13.346;2024-03-02T01:58:22;100054.00;;;14.00
15845;BMP180;50807;52.436;13.346;2024-03-02T01:58:53;100045.00;;;14.00
15845;BMP180;50807;52.436;13.346;2024-03-02T01:59:24;100045.00;;;14.00
15845;BMP180;50807;52.436;13.346;2024-03-02T01:59:56;100035.00;;;14.00
15845;BMP180;50807;52.436;13.346;2024-03-02T02:00:27;100039.00;;;14.00
15845;BMP180;50807;52.436;13.346;2024-03-02T02:00:58;100041.00;;;14.00
15845;BMP180;50807;52.436;13.346;2024-03-02T02:01:30;100038.00;;;14.00
15845;BMP180;50807;52.436;13.346;2024-03-02T02:02:01;100031.00;;;14.00
15845;BMP180;50807;52.436;13.346;2024-03-02T02:02:32;100036.00;;;14.00
15845;BMP180;50807;52.436;13.346;2024-03-02T02:03:04;100031.00;;;14.00
15845;BMP180;50807;52.436;13.346;2024-03-02T02:03:35;100027.00;;;13.90
15845;BMP180;50807;52.436;13.346;2024-03-02T02:04:07;100040.00;;;14.00
15845;BMP180;50807;52.436;13.346;2024-03-02T02:04:38;100021.00;;;14.00
15845;BMP180;50807;52.436;13.346;2024-03-02T02:05:09;100038.00;;;14.00
15845;BMP180;50807;52.436;13.346;2024-03-02T02:05:42;100026.00;;;14.00
15845;BMP180;50807;52.436;13.346;2024-03-02T02:06:14;100034.00;;;14.00
15845;BMP180;50807;52.436;13.346;2024-03-02T02:06:44;100029.00;;;14.00
15845;BMP180;50807;52.436;13.346;2024-03-02T02:07:15;100016.00;;;14.00
15845;BMP180;50807;52.436;13.346;2024-03-02T02:07:46;100031.00;;;14.00
15845;BMP180;50807;52.436;13.346;2024-03-02T02:08:17;100026.00;;;14.00
15845;BMP180;50807;52.436;13.346;2024-03-02T02:08:49;100030.00;;;14.00
15845;BMP180;50807;52.436;13.346;2024-03-02T02:09:20;100032.00;;;14.00
15845;BMP180;50807;52.436;13.346;2024-03-02T02:09:50;100036.00;;;14.00
15845;BMP180;50807;52.436;13.346;2024-03-02T02:10:21;100034.00;;;14.00
15845;BMP180;50807;52.436;13.346;2024-03-02T02:10:52;100033.00;;;14.00
15845;BMP180;50807;52.436;13.346;2024-03-02T02:11:24;100036.00;;;14.00
15845;BMP180;50807;52.436;13.346;2024-03-02T02:11:55;100029.00;;;14.00
15845;BMP180;50807;52.436;13.346;2024-03-02T02:12:26;100032.00;;;13.90
15845;BMP180;50807;52.436;13.346;2024-03-02T02:12:57;100026.00;;;14.00
15845;BMP180;50807;52.436;13.346;2024-03-02T02:13:30;100028.00;;;13.90
15845;BMP180;50807;52.436;13.346;2024-03-02T02:14:01;100030.00;;;14.00
15845;BMP180;50807;52.436;13.346;2024-03-02T02:14:32;100027.00;;;13.90
15845;BMP180;50807;52.436;13.346;2024-03-02T02:15:03;100025.00;;;13.90
15845;BMP180;50807;52.436;13.346;2024-03-02T02:15:36;100025.00;;;13.90
15845;BMP180;50807;52.436;13.346;2024-03-02T02:16:08;100032.00;;;13.90
15845;BMP180;50807;52.436;13.346;2024-03-02T02:16:38;100020.00;;;13.90
15845;BMP180;50807;52.436;13.346;2024-03-02T02:17:09;100026.00;;;14.00
15845;BMP180;50807;52.436;13.346;2024-03-02T02:17:41;100031.00;;;13.90
15845;BMP180;50807;52.436;13.346;2024-03-02T02:18:11;100024.00;;;13.90
15845;BMP180;50807;52.436;13.346;2024-03-02T02:18:42;100023.00;;;14.00
15845;BMP180;50807;52.436;13.346;2024-03-02T02:19:13;100025.00;;;14.00
15845;BMP180;50807;52.436;13.346;2024-03-02T02:19:45;100032.00;;;14.00
15845;BMP180;50807;52.436;13.346;2024-03-02T02:20:16;100024.00;;;13.90
15845;BMP180;50807;52.436;13.346;2024-03-02T02:20:46;100031.00;;;13.90
15845;BMP180;50807;52.436;13.346;2024-03-02T02:21:17;100026.00;;;13.90
15845;BMP180;50807;52.436;13.346;2024-03-02T02:21:50;100027.00;;;13.90
15845;BMP180;50807;52.436;13.346;2024-03-02T02:22:21;100025.00;;;13.90
15845;BMP180;50807;52.436;13.346;2024-03-02T02:22:56;100025.00;;;13.90
15845;BMP180;50807;52.436;13.346;2024-03-02T02:23:27;100021.00;;;13.90
15845;BMP180;50807;52.436;13.346;2024-03-02T02:23:59;100029.00;;;13.90
15845;BMP180;50807;52.436;13.346;2024-03-02T02:24:29;100023.00;;;13.90
15845;BMP180;50807;52.436;13.346;2024-03-02T02:25:00;100024.00;;;13.90
15845;BMP180;50807;52.436;13.346;2024-03-02T02:25:31;100020.00;;;13.90
15845;BMP180;50807;52.436;13.346;2024-03-02T02:26:03;100020.00;;;13.90
15845;BMP180;50807;52.436;13.346;2024-03-02T02:26:34;100021.00;;;13.90
15845;BMP180;50807;52.436;13.346;2024-03-02T02:27:05;100024.00;;;13.90
15845;BMP180;50807;52.436;13.346;2024-03-02T02:27:35;100027.00;;;13.90
15845;BMP180;50807;52.436;13.346;2024-03-02T02:28:07;100018.00;;;13.80
15845;BMP180;50807;52.436;13.346;2024-03-02T02:28:38;100022.00;;;13.80
15845;BMP180;50807;52.436;13.346;2024-03-02T02:29:09;100024.00;;;13.80
15845;BMP180;50807;52.436;13.346;2024-03-02T02:29:40;100030.00;;;13.80
15845;BMP180;50807;52.436;13.346;2024-03-02T02:30:13;100021.00;;;13.80
15845;BMP180;50807;52.436;13.346;2024-03-02T02:30:43;100026.00;;;13.80
15845;BMP180;50807;52.436;13.346;2024-03-02T02:31:14;100036.00;;;13.80
15845;BMP180;50807;52.436;13.346;2024-03-02T02:31:45;100030.00;;;13.80
15845;BMP180;50807;52.436;13.346;2024-03-02T02:32:17;100030.00;;;13.80
15845;BMP180;50807;52.436;13.346;2024-03-02T02:32:48;100033.00;;;13.80
15845;BMP180;50807;52.436;13.346;2024-03-02T02:33:18;100035.00;;;13.80
15845;BMP180;50807;52.436;13.346;2024-03-02T02:33:49;100027.00;;;13.80
15845;BMP180;50807;52.436;13.346;2024-03-02T02:34:21;100022.00;;;13.80
15845;BMP180;50807;52.436;13.346;2024-03-02T02:34:52;100029.00;;;13.80
15845;BMP180;50807;52.436;13.346;2024-03-02T02:35:23;100028.00;;;13.80
15845;BMP180;50807;52.436;13.346;2024-03-02T02:35:55;100032.00;;;13.80
15845;BMP180;50807;52.436;13.346;2024-03-02T02:36:26;100031.00;;;13.80
15845;BMP180;50807;52.436;13.346;2024-03-02T02:36:58;100027.00;;;13.80
15845;BMP180;50807;52.436;13.346;2024-03-02T02:37:29;100022.00;;;13.80
15845;BMP180;50807;52.436;13.346;2024-03-02T02:37:59;100027.00;;;13.80
15845;BMP180;50807;52.436;13.346;2024-03-02T02:38:35;100032.00;;;13.70
15845;BMP180;50807;52.436;13.346;2024-03-02T02:39:11;100020.00;;;13.70
15845;BMP180;50807;52.436;13.346;2024-03-02T02:39:43;100027.00;;;13.70
15845;BMP180;50807;52.436;13.346;2024-03-02T02:40:15;100027.00;;;13.70
15845;BMP180;50807;52.436;13.346;2024-03-02T02:40:49;100022.00;;;13.70
15845;BMP180;50807;52.436;13.346;2024-03-02T02:41:20;100019.00;;;13.70
15845;BMP180;50807;52.436;13.346;2024-03-02T02:41:50;100022.00;;;13.70
15845;BMP180;50807;52.436;13.346;2024-03-02T02:42:21;100024.00;;;13.80
15845;BMP180;50807;52.436;13.346;2024-03-02T02:42:53;100024.00;;;13.70
15845;BMP180;50807;52.436;13.346;2024-03-02T02:43:23;100031.00;;;13.70
15845;BMP180;50807;52.436;13.346;2024-03-02T02:43:54;100025.00;;;13.70
15845;BMP180;50807;52.436;13.346;2024-03-02T02:44:25;100031.00;;;13.70
15845;BMP180;50807;52.436;13.346;2024-03-02T02:44:56;100029.00;;;13.70
15845;BMP180;50807;52.436;13.346;2024-03-02T02:45:27;100024.00;;;13.70
15845;BMP180;50807;52.436;13.346;2024-03-02T02:45:58;100031.00;;;13.80
15845;BMP180;50807;52.436;13.346;2024-03-02T02:46:29;100030.00;;;13.80
15845;BMP180;50807;52.436;13.346;2024-03-02T02:47:00;100030.00;;;13.70
15845;BMP180;50807;52.436;13.346;2024-03-02T02:47:31;100030.00;;;13.70
15845;BMP180;50807;52.436;13.346;2024-03-02T02:48:06;100032.00;;;13.70
15845;BMP180;50807;52.436;13.346;2024-03-02T02:48:37;100030.00;;;13.70
15845;BMP180;50807;52.436;13.346;2024-03-02T02:49:08;100026.00;;;13.70
15845;BMP180;50807;52.436;13.346;2024-03-02T02:49:39;100023.00;;;13.70
15845;BMP180;50807;52.436;13.346;2024-03-02T02:50:11;100032.00;;;13.70
15845;BMP180;50807;52.436;13.346;2024-03-02T02:50:43;100037.00;;;13.70
15845;BMP180;50807;52.436;13.346;2024-03-02T02:51:14;100038.00;;;13.70
15845;BMP180;50807;52.436;13.346;2024-03-02T02:51:44;100032.00;;;13.70
15845;BMP180;50807;52.436;13.346;2024-03-02T02:52:16;100039.00;;;13.70
15845;BMP180;50807;52.436;13.346;2024-03-02T02:52:49;100035.00;;;13.70
15845;BMP180;50807;52.436;13.346;2024-03-02T02:53:20;100035.00;;;13.70
15845;BMP180;50807;52.436;13.346;2024-03-02T02:53:51;100030.00;;;13.70
15845;BMP180;50807;52.436;13.346;2024-03-02T02:54:22;100029.00;;;13.70
15845;BMP180;50807;52.436;13.346;2024-03-02T02:54:54;100038.00;;;13.70
15845;BMP180;50807;52.436;13.346;2024-03-02T02:55:25;100035.00;;;13.70
15845;BMP180;50807;52.436;13.346;2024-03-02T02:55:55;100037.00;;;13.70
15845;BMP180;50807;52.436;13.346;2024-03-02T02:56:26;100036.00;;;13.70
15845;BMP180;50807;52.436;13.346;2024-03-02T02:56:57;100036.00;;;13.70
15845;BMP180;50807;52.436;13.346;2024-03-02T02:57:30;100035.00;;;13.70
15845;BMP180;50807;52.436;13.346;2024-03-02T02:58:05;100033.00;;;13.60
15845;BMP180;50807;52.436;13.346;2024-03-02T02:58:36;100032.00;;;13.60